Shantou Waisha Airport
ZGOW : now visible

Airfield :











YOU CAN JOIN US ON...

 
LOGIN :

Register | Disclaimer

   EN    FR    IT 

 









Legend :    VFR   Marginal VFR   IFR   Intensive IFR   Very Intensive IFR
Visi :
Ceiling :
>= 8 km
>= 3000ft
5 to 8 km
1000 to 3000 ft
1500m to 5 km
500 to 1000 ft
800 to 1500m
200 to 500 ft
< 800m
< 200 ft
Symbols :   Thunderstorms  Fog  Heavy snow  Heavy precipitations  Wind > 20 kt






- Airport Elevation : 0 ft
- IATA code : SWA


ZGOW - Shantou Waisha

CURRENT METAR :
  • 300200Z 19003MPS 160V230 9000 -SHRA FEW011 FEW033TCU SCT050 26/26 Q1012 BECMG 2800 -SHRA BR

EXPIRED METARs :
  • 300100Z VRB01MPS 2000 -SHRA BR SCT007 FEW020TCU BKN020 25/25 Q1012 RETSRA BECMG TL0230 3200
  • 300000Z VRB01MPS 1800 -TSRA BR SCT007 SCT011 FEW020CB BKN020 26/26 Q1012 BECMG TL0130 -SHRA

TAF TAF ZGOW
Valid from the 30 at 00:00 until the 31 at 00:00 UTC


292106Z 3000/3024 15003MPS 5000 BR SCT010 BKN030 TX28/3006Z TN24/3022Z
TEMPO 3000/3006 VRB08G14MPS 2100 TSRA SCT010 SCT026CB BKN030
ZGZU FIR / Asia



MET'MAP, your aeronautical weather chart ! - Copyright ORBIFLY December 2007 - Disclaimer

ORBIFLY MET'MAP TEAM :

Programming & Development : Alexandra Zaïnal
Concept & original design : Baudouin d'Aumeries
Assistance for programming : Marc-Olivier Méhu
Technical & hardware support : Manuel Goepfert

Contact : metmap@orbifly.com




SOURCES & CREDITS :

   NOAA       Earth
Advisory